PWSweather.com
Personal Weather Stations
Station Observations

OlomoucCZ

Lat: 49.5936202181, Lon: 17.2276005149

Elevation: 752

Station Type: Davis Vantage Pro 2 Activ

http://infopocasi-olomouc.cz

Latest ConditionsUpdated 11:30:01 AM GMT+01:01 Wednesday, Dec 12, 2018
Currently Today's Max Today's Min Today's Average
Temperature 34.6°F1.4°C 35.0°F1.7°C 30.7°F-0.7°C 33.2°F0.7°C
Dew Point 33.3°F0.7°C 33.3°F0.7°C 28.9°F-1.7°C 31.2°F-0.4°C
Winds 2.3 mph NNW3.7 kmh NNW 6.9 mph -11.1 kmh - - 3.6 mph 5.8 kmh
Wind Gusts 2.3 mph3.7 kmh 10.4 mph16.7 kmh - -
Humidity 95% 95% 89% 92%
Pressure 30.07 in1018.3 mb 30.07 in1018.3 mb 29.95 in1014.2 mb -
Hour Temp Dew Point Humidity Winds Wind Gusts Pressure Precip Precip Rate Daily Precip Total
11:30 AM 34.6°F1.4°C 33.3°F0.7°C 95% 2.3 mph NNW3.7 kmh NNW 2.3 mph3.7 kmh 30.07 in1018.3 mb - 0.00 in0.0 mm 0.00 in0.0 mm
11:00 AM 34.6°F1.4°C 32.8°F0.4°C 93% 5.8 mph NW9.3 kmh NW 8.1 mph13.0 kmh 30.07 in1018.3 mb - 0.00 in0.0 mm 0.00 in0.0 mm
10:30 AM 35.0°F1.7°C 32.6°F0.3°C 91% 5.8 mph NW9.3 kmh NW 9.2 mph14.8 kmh 30.07 in1018.3 mb - 0.00 in0.0 mm 0.00 in0.0 mm
10:00 AM 34.5°F1.4°C 32.4°F0.2°C 92% 3.5 mph NW5.6 kmh NW 3.5 mph5.6 kmh 30.07 in1018.3 mb - 0.00 in0.0 mm 0.00 in0.0 mm
09:30 AM 33.8°F1.0°C 32.3°F0.2°C 94% 2.3 mph NW3.7 kmh NW 3.5 mph5.6 kmh 30.06 in1017.9 mb - 0.00 in0.0 mm 0.00 in0.0 mm
09:00 AM 33.3°F0.7°C 31.8°F-0.1°C 94% 2.3 mph NW3.7 kmh NW 3.5 mph5.6 kmh 30.05 in1017.6 mb - 0.00 in0.0 mm 0.00 in0.0 mm
08:30 AM 33.2°F0.7°C 31.7°F-0.2°C 94% 2.3 mph NW3.7 kmh NW 3.5 mph5.6 kmh 30.04 in1017.3 mb - 0.00 in0.0 mm 0.00 in0.0 mm
08:00 AM 33.0°F0.6°C 31.5°F-0.3°C 94% 1.2 mph NW1.9 kmh NW 2.3 mph3.7 kmh 30.04 in1017.3 mb - 0.00 in0.0 mm 0.00 in0.0 mm
07:30 AM 32.9°F0.5°C 31.4°F-0.3°C 94% 2.3 mph NW3.7 kmh NW 3.5 mph5.6 kmh 30.03 in1016.9 mb - 0.00 in0.0 mm 0.00 in0.0 mm
07:00 AM 32.6°F0.3°C 31.1°F-0.5°C 94% 3.5 mph NW5.6 kmh NW 3.5 mph5.6 kmh 30.02 in1016.6 mb - 0.00 in0.0 mm 0.00 in0.0 mm
06:30 AM 31.4°F-0.3°C 29.9°F-1.2°C 94% 2.3 mph NW3.7 kmh NW 2.3 mph3.7 kmh 30.01 in1016.3 mb - 0.00 in0.0 mm 0.00 in0.0 mm
06:00 AM 31.6°F-0.2°C 30.1°F-1.1°C 94% 2.3 mph NW3.7 kmh NW 3.5 mph5.6 kmh 30.01 in1016.3 mb - 0.00 in0.0 mm 0.00 in0.0 mm
05:30 AM 31.5°F-0.3°C 29.7°F-1.3°C 93% 2.3 mph NW3.7 kmh NW 3.5 mph5.6 kmh 30.00 in1015.9 mb - 0.00 in0.0 mm 0.00 in0.0 mm
05:00 AM 31.8°F-0.1°C 30.3°F-0.9°C 94% 3.5 mph NW5.6 kmh NW 3.5 mph5.6 kmh 30.00 in1015.9 mb - 0.00 in0.0 mm 0.00 in0.0 mm
04:30 AM 30.7°F-0.7°C 28.9°F-1.7°C 93% 3.5 mph NW5.6 kmh NW 3.5 mph5.6 kmh 29.99 in1015.6 mb - 0.00 in0.0 mm 0.00 in0.0 mm
04:00 AM 32.1°F0.1°C 29.8°F-1.2°C 91% 1.2 mph NW1.9 kmh NW 2.3 mph3.7 kmh 29.98 in1015.2 mb - 0.00 in0.0 mm 0.00 in0.0 mm
03:30 AM 33.1°F0.6°C 30.5°F-0.8°C 90% 4.6 mph NW7.4 kmh NW 4.6 mph7.4 kmh 29.99 in1015.6 mb - 0.00 in0.0 mm 0.00 in0.0 mm
03:00 AM 33.5°F0.8°C 30.8°F-0.7°C 90% 6.9 mph W11.1 kmh W 8.1 mph13.0 kmh 29.98 in1015.2 mb - 0.00 in0.0 mm 0.00 in0.0 mm
02:30 AM 32.4°F0.2°C 30.4°F-0.9°C 92% Calm Calm 3.5 mph5.6 kmh 29.98 in1015.2 mb - 0.00 in0.0 mm 0.00 in0.0 mm
02:00 AM 33.4°F0.8°C 30.8°F-0.7°C 90% 3.5 mph WNW5.6 kmh WNW 4.6 mph7.4 kmh 29.97 in1014.9 mb - 0.00 in0.0 mm 0.00 in0.0 mm
01:30 AM 33.6°F0.9°C 31.0°F-0.6°C 90% 5.8 mph WNW9.3 kmh WNW 9.2 mph14.8 kmh 29.97 in1014.9 mb - 0.00 in0.0 mm 0.00 in0.0 mm
01:00 AM 34.0°F1.1°C 31.4°F-0.3°C 90% 5.8 mph WNW9.3 kmh WNW 8.1 mph13.0 kmh 29.96 in1014.6 mb - 0.00 in0.0 mm 0.00 in0.0 mm
12:30 AM 34.8°F1.6°C 31.9°F-0.1°C 89% 6.9 mph NW11.1 kmh NW 10.4 mph16.7 kmh 29.96 in1014.6 mb - 0.00 in0.0 mm 0.00 in0.0 mm
12:00 AM 35.0°F1.7°C 32.1°F0.1°C 89% 5.8 mph WNW9.3 kmh WNW 8.1 mph13.0 kmh 29.95 in1014.2 mb - 0.00 in0.0 mm 0.00 in0.0 mm